sensor_id;sensor_type;location;lat;lon;timestamp;pressure;altitude;pressure_sealevel;temperature;humidity
62122;BME280;48108;47.532;19.084;2023-02-02T04:56:30;100117.28;;;2.33;100.00
62122;BME280;48108;47.532;19.084;2023-02-02T04:59:33;100110.91;;;2.45;100.00
62122;BME280;48108;47.532;19.084;2023-02-02T05:02:42;100121.41;;;2.47;100.00
62122;BME280;48108;47.532;19.084;2023-02-02T05:05:45;100132.53;;;2.31;100.00
62122;BME280;48108;47.532;19.084;2023-02-02T05:08:48;100126.09;;;2.13;100.00
62122;BME280;48108;47.532;19.084;2023-02-02T05:11:50;100130.84;;;2.09;100.00
62122;BME280;48108;47.532;19.084;2023-02-02T05:14:53;100141.91;;;2.14;100.00
62122;BME280;48108;47.532;19.084;2023-02-02T05:17:56;100147.06;;;2.16;100.00
62122;BME280;48108;47.532;19.084;2023-02-02T05:21:00;100158.78;;;2.13;100.00
62122;BME280;48108;47.532;19.084;2023-02-02T05:24:04;100168.91;;;1.98;100.00
62122;BME280;48108;47.532;19.084;2023-02-02T05:27:06;100180.28;;;1.89;100.00
62122;BME280;48108;47.532;19.084;2023-02-02T05:30:11;100190.59;;;2.03;100.00
62122;BME280;48108;47.532;19.084;2023-02-02T05:33:15;100197.16;;;1.99;100.00
62122;BME280;48108;47.532;19.084;2023-02-02T05:36:20;100215.12;;;1.96;100.00
62122;BME280;48108;47.532;19.084;2023-02-02T05:39:23;100214.44;;;1.94;100.00
62122;BME280;48108;47.532;19.084;2023-02-02T05:42:26;100215.72;;;1.99;100.00
62122;BME280;48108;47.532;19.084;2023-02-02T05:45:28;100212.34;;;1.97;100.00
62122;BME280;48108;47.532;19.084;2023-02-02T05:48:31;100207.63;;;2.01;100.00
62122;BME280;48108;47.532;19.084;2023-02-02T05:51:42;100214.75;;;2.00;100.00
62122;BME280;48108;47.532;19.084;2023-02-02T05:54:46;100214.28;;;1.95;100.00
62122;BME280;48108;47.532;19.084;2023-02-02T05:57:49;100218.44;;;1.88;100.00
62122;BME280;48108;47.532;19.084;2023-02-02T06:00:52;100218.03;;;1.93;100.00
62122;BME280;48108;47.532;19.084;2023-02-02T06:03:58;100202.97;;;1.93;100.00
62122;BME280;48108;47.532;19.084;2023-02-02T06:07:01;100207.41;;;1.93;100.00
62122;BME280;48108;47.532;19.084;2023-02-02T06:10:05;100208.38;;;1.92;100.00
62122;BME280;48108;47.532;19.084;2023-02-02T06:13:08;100205.47;;;1.95;100.00
62122;BME280;48108;47.532;19.084;2023-02-02T06:16:11;100202.34;;;1.90;100.00
62122;BME280;48108;47.532;19.084;2023-02-02T06:19:14;100208.38;;;1.92;100.00
62122;BME280;48108;47.532;19.084;2023-02-02T06:22:17;100215.22;;;1.73;100.00
62122;BME280;48108;47.532;19.084;2023-02-02T06:25:20;100217.50;;;1.67;100.00
62122;BME280;48108;47.532;19.084;2023-02-02T06:28:23;100218.19;;;1.80;100.00
62122;BME280;48108;47.532;19.084;2023-02-02T06:31:26;100210.37;;;1.78;100.00
62122;BME280;48108;47.532;19.084;2023-02-02T06:34:29;100203.13;;;1.80;100.00
62122;BME280;48108;47.532;19.084;2023-02-02T06:37:32;100190.81;;;1.79;100.00
62122;BME280;48108;47.532;19.084;2023-02-02T06:40:35;100191.28;;;1.85;100.00
62122;BME280;48108;47.532;19.084;2023-02-02T06:43:38;100192.69;;;2.00;100.00
62122;BME280;48108;47.532;19.084;2023-02-02T06:46:41;100203.28;;;2.00;100.00
62122;BME280;48108;47.532;19.084;2023-02-02T06:49:44;100201.38;;;2.02;100.00
62122;BME280;48108;47.532;19.084;2023-02-02T06:52:49;100198.47;;;2.26;100.00
62122;BME280;48108;47.532;19.084;2023-02-02T06:55:57;100199.87;;;2.30;100.00
62122;BME280;48108;47.532;19.084;2023-02-02T06:59:02;100194.72;;;2.49;100.00
62122;BME280;48108;47.532;19.084;2023-02-02T07:02:09;100199.81;;;2.62;100.00
62122;BME280;48108;47.532;19.084;2023-02-02T07:05:12;100208.69;;;2.72;100.00
62122;BME280;48108;47.532;19.084;2023-02-02T07:08:15;100217.44;;;2.84;100.00
62122;BME280;48108;47.532;19.084;2023-02-02T07:11:18;100214.81;;;2.94;100.00
62122;BME280;48108;47.532;19.084;2023-02-02T07:14:21;100223.53;;;3.06;100.00
62122;BME280;48108;47.532;19.084;2023-02-02T07:17:24;100235.50;;;3.21;100.00
62122;BME280;48108;47.532;19.084;2023-02-02T07:20:27;100248.84;;;3.31;100.00
62122;BME280;48108;47.532;19.084;2023-02-02T07:23:31;100258.25;;;3.35;100.00
62122;BME280;48108;47.532;19.084;2023-02-02T07:26:34;100261.53;;;3.48;100.00
62122;BME280;48108;47.532;19.084;2023-02-02T07:29:38;100270.53;;;3.57;100.00
62122;BME280;48108;47.532;19.084;2023-02-02T07:32:45;100269.53;;;3.58;100.00
62122;BME280;48108;47.532;19.084;2023-02-02T07:35:48;100272.09;;;3.69;100.00
62122;BME280;48108;47.532;19.084;2023-02-02T07:38:52;100267.50;;;3.91;100.00
62122;BME280;48108;47.532;19.084;2023-02-02T07:41:56;100280.03;;;4.09;98.93
62122;BME280;48108;47.532;19.084;2023-02-02T07:44:59;100282.41;;;4.13;96.94
62122;BME280;48108;47.532;19.084;2023-02-02T07:48:22;100291.13;;;4.24;96.10
62122;BME280;48108;47.532;19.084;2023-02-02T07:51:25;100281.72;;;4.40;93.81
62122;BME280;48108;47.532;19.084;2023-02-02T07:54:28;100283.66;;;4.57;94.08
62122;BME280;48108;47.532;19.084;2023-02-02T07:57:33;100283.94;;;4.83;92.05
62122;BME280;48108;47.532;19.084;2023-02-02T08:00:36;100290.19;;;5.02;91.12
62122;BME280;48108;47.532;19.084;2023-02-02T08:03:40;100274.16;;;5.11;89.38
62122;BME280;48108;47.532;19.084;2023-02-02T08:06:44;100277.09;;;5.08;90.05
62122;BME280;48108;47.532;19.084;2023-02-02T08:09:47;100270.81;;;5.09;89.64
62122;BME280;48108;47.532;19.084;2023-02-02T08:12:49;100275.22;;;5.28;89.40
62122;BME280;48108;47.532;19.084;2023-02-02T08:15:59;100284.09;;;5.84;86.56
62122;BME280;48108;47.532;19.084;2023-02-02T08:19:01;100271.66;;;5.93;84.15
62122;BME280;48108;47.532;19.084;2023-02-02T08:22:07;100282.41;;;5.83;84.79
62122;BME280;48108;47.532;19.084;2023-02-02T08:25:09;100281.41;;;5.84;83.58
62122;BME280;48108;47.532;19.084;2023-02-02T08:28:12;100280.25;;;5.68;84.40
62122;BME280;48108;47.532;19.084;2023-02-02T08:31:18;100258.31;;;5.93;83.75
62122;BME280;48108;47.532;19.084;2023-02-02T08:34:23;100255.91;;;6.17;82.05
62122;BME280;48108;47.532;19.084;2023-02-02T08:37:25;100267.37;;;6.27;80.13
62122;BME280;48108;47.532;19.084;2023-02-02T08:40:29;100245.78;;;6.21;80.64
62122;BME280;48108;47.532;19.084;2023-02-02T08:43:31;100254.84;;;6.46;79.49
62122;BME280;48108;47.532;19.084;2023-02-02T08:46:34;100254.75;;;6.37;80.80
62122;BME280;48108;47.532;19.084;2023-02-02T08:49:37;100254.59;;;6.57;81.45
62122;BME280;48108;47.532;19.084;2023-02-02T08:52:40;100248.56;;;6.37;80.78
62122;BME280;48108;47.532;19.084;2023-02-02T08:55:43;100256.59;;;6.37;80.65
62122;BME280;48108;47.532;19.084;2023-02-02T08:58:48;100268.28;;;6.00;80.85
62122;BME280;48108;47.532;19.084;2023-02-02T09:01:52;100264.69;;;6.27;79.51
62122;BME280;48108;47.532;19.084;2023-02-02T09:04:55;100273.47;;;6.20;80.57
62122;BME280;48108;47.532;19.084;2023-02-02T09:07:58;100276.22;;;6.28;79.84
62122;BME280;48108;47.532;19.084;2023-02-02T09:11:10;100283.09;;;6.12;78.68
62122;BME280;48108;47.532;19.084;2023-02-02T09:14:13;100295.09;;;6.08;78.14
62122;BME280;48108;47.532;19.084;2023-02-02T09:17:16;100291.78;;;5.97;78.27
62122;BME280;48108;47.532;19.084;2023-02-02T09:20:19;100302.50;;;5.87;79.30
62122;BME280;48108;47.532;19.084;2023-02-02T09:23:22;100304.94;;;6.08;79.23
62122;BME280;48108;47.532;19.084;2023-02-02T09:26:27;100307.66;;;5.98;78.14
62122;BME280;48108;47.532;19.084;2023-02-02T09:29:30;100314.38;;;6.02;78.52
62122;BME280;48108;47.532;19.084;2023-02-02T09:32:33;100312.88;;;6.00;78.92
62122;BME280;48108;47.532;19.084;2023-02-02T09:35:38;100317.75;;;6.04;78.57
62122;BME280;48108;47.532;19.084;2023-02-02T09:38:42;100309.81;;;5.85;78.63
62122;BME280;48108;47.532;19.084;2023-02-02T09:42:00;100320.50;;;5.85;78.92
62122;BME280;48108;47.532;19.084;2023-02-02T09:49:05;100310.84;;;6.11;75.61
62122;BME280;48108;47.532;19.084;2023-02-02T09:52:29;100318.06;;;6.01;77.51
62122;BME280;48108;47.532;19.084;2023-02-02T09:55:37;100312.09;;;6.07;76.41
62122;BME280;48108;47.532;19.084;2023-02-02T09:58:48;100310.53;;;6.15;76.32
62122;BME280;48108;47.532;19.084;2023-02-02T10:01:56;100311.28;;;6.61;74.93
62122;BME280;48108;47.532;19.084;2023-02-02T10:05:17;100319.53;;;6.85;72.66
62122;BME280;48108;47.532;19.084;2023-02-02T10:08:31;100309.62;;;6.59;72.23
62122;BME280;48108;47.532;19.084;2023-02-02T10:11:46;100312.53;;;6.48;73.39
62122;BME280;48108;47.532;19.084;2023-02-02T10:24:48;100320.00;;;6.27;75.67
62122;BME280;48108;47.532;19.084;2023-02-02T10:28:02;100325.88;;;6.30;75.55
62122;BME280;48108;47.532;19.084;2023-02-02T10:31:16;100312.41;;;6.04;76.88
62122;BME280;48108;47.532;19.084;2023-02-02T10:38:36;100319.22;;;5.89;76.73
62122;BME280;48108;47.532;19.084;2023-02-02T10:45:22;100295.94;;;6.09;77.25
62122;BME280;48108;47.532;19.084;2023-02-02T10:48:32;100292.44;;;6.08;76.63
62122;BME280;48108;47.532;19.084;2023-02-02T10:51:38;100288.84;;;6.18;75.65
62122;BME280;48108;47.532;19.084;2023-02-02T10:55:00;100288.06;;;6.25;76.44
62122;BME280;48108;47.532;19.084;2023-02-02T10:58:16;100283.09;;;6.30;74.95
62122;BME280;48108;47.532;19.084;2023-02-02T11:01:22;100280.22;;;6.42;75.95
62122;BME280;48108;47.532;19.084;2023-02-02T11:04:26;100284.94;;;6.30;76.40
62122;BME280;48108;47.532;19.084;2023-02-02T11:07:52;100287.75;;;6.46;75.26
62122;BME280;48108;47.532;19.084;2023-02-02T11:10:57;100279.19;;;6.61;75.12
62122;BME280;48108;47.532;19.084;2023-02-02T11:14:14;100282.78;;;6.51;75.93
62122;BME280;48108;47.532;19.084;2023-02-02T11:17:22;100277.50;;;6.77;74.68
62122;BME280;48108;47.532;19.084;2023-02-02T11:20:34;100285.72;;;6.84;74.68
62122;BME280;48108;47.532;19.084;2023-02-02T11:23:50;100298.53;;;6.98;74.63
62122;BME280;48108;47.532;19.084;2023-02-02T11:27:00;100302.38;;;7.22;72.96
62122;BME280;48108;47.532;19.084;2023-02-02T11:30:33;100292.56;;;7.31;72.36
62122;BME280;48108;47.532;19.084;2023-02-02T11:33:37;100299.38;;;7.25;73.56
62122;BME280;48108;47.532;19.084;2023-02-02T11:37:09;100291.50;;;7.49;72.98
62122;BME280;48108;47.532;19.084;2023-02-02T11:40:26;100295.47;;;7.80;71.36
62122;BME280;48108;47.532;19.084;2023-02-02T11:43:33;100306.75;;;7.91;71.42
62122;BME280;48108;47.532;19.084;2023-02-02T11:46:42;100314.22;;;7.80;70.38
62122;BME280;48108;47.532;19.084;2023-02-02T11:49:46;100319.91;;;7.77;71.21
62122;BME280;48108;47.532;19.084;2023-02-02T11:52:51;100313.44;;;7.53;72.32
62122;BME280;48108;47.532;19.084;2023-02-02T11:55:57;100331.19;;;7.28;72.30
62122;BME280;48108;47.532;19.084;2023-02-02T11:59:01;100327.47;;;7.21;72.62
62122;BME280;48108;47.532;19.084;2023-02-02T12:08:21;100340.09;;;6.49;75.58
62122;BME280;48108;47.532;19.084;2023-02-02T12:24:42;100332.06;;;6.31;75.63
62122;BME280;48108;47.532;19.084;2023-02-02T12:27:59;100327.19;;;6.26;76.90
62122;BME280;48108;47.532;19.084;2023-02-02T12:41:25;100327.00;;;6.10;77.18
62122;BME280;48108;47.532;19.084;2023-02-02T12:51:36;100324.69;;;5.97;77.49
62122;BME280;48108;47.532;19.084;2023-02-02T12:58:19;100332.59;;;5.89;79.92
62122;BME280;48108;47.532;19.084;2023-02-02T13:01:47;100338.22;;;5.86;78.92
62122;BME280;48108;47.532;19.084;2023-02-02T13:08:16;100334.84;;;5.84;78.51
62122;BME280;48108;47.532;19.084;2023-02-02T13:11:23;100329.81;;;5.81;79.22
62122;BME280;48108;47.532;19.084;2023-02-02T13:14:44;100338.81;;;5.80;79.69
62122;BME280;48108;47.532;19.084;2023-02-02T13:18:00;100348.81;;;5.78;79.68
62122;BME280;48108;47.532;19.084;2023-02-02T13:21:10;100353.00;;;5.80;79.35
62122;BME280;48108;47.532;19.084;2023-02-02T13:24:21;100348.09;;;5.76;78.03
62122;BME280;48108;47.532;19.084;2023-02-02T13:27:25;100351.47;;;5.78;79.07
62122;BME280;48108;47.532;19.084;2023-02-02T13:30:33;100346.97;;;5.78;79.22
62122;BME280;48108;47.532;19.084;2023-02-02T13:33:40;100349.50;;;5.80;79.01
62122;BME280;48108;47.532;19.084;2023-02-02T13:36:49;100342.03;;;5.83;78.55
62122;BME280;48108;47.532;19.084;2023-02-02T13:40:03;100344.09;;;5.89;79.01
62122;BME280;48108;47.532;19.084;2023-02-02T13:43:41;100341.13;;;5.93;78.20
62122;BME280;48108;47.532;19.084;2023-02-02T13:46:51;100343.25;;;5.99;77.29
62122;BME280;48108;47.532;19.084;2023-02-02T13:50:04;100361.28;;;5.87;77.78
62122;BME280;48108;47.532;19.084;2023-02-02T13:53:30;100346.78;;;5.89;78.43
62122;BME280;48108;47.532;19.084;2023-02-02T14:07:03;100368.84;;;6.29;77.95
62122;BME280;48108;47.532;19.084;2023-02-02T14:10:25;100349.84;;;6.22;78.46
62122;BME280;48108;47.532;19.084;2023-02-02T14:13:42;100357.34;;;6.19;78.17
62122;BME280;48108;47.532;19.084;2023-02-02T14:20:41;100350.75;;;6.13;79.55
62122;BME280;48108;47.532;19.084;2023-02-02T14:23:51;100362.19;;;6.05;78.83
62122;BME280;48108;47.532;19.084;2023-02-02T14:30:20;100366.91;;;5.84;79.98
62122;BME280;48108;47.532;19.084;2023-02-02T14:33:26;100358.06;;;5.83;80.50
62122;BME280;48108;47.532;19.084;2023-02-02T14:36:51;100364.94;;;5.86;79.82
62122;BME280;48108;47.532;19.084;2023-02-02T14:43:31;100369.19;;;5.79;79.45
62122;BME280;48108;47.532;19.084;2023-02-02T14:46:45;100368.94;;;5.72;79.65
62122;BME280;48108;47.532;19.084;2023-02-02T14:49:55;100374.56;;;5.69;80.33
62122;BME280;48108;47.532;19.084;2023-02-02T14:53:30;100381.59;;;5.70;80.51
62122;BME280;48108;47.532;19.084;2023-02-02T14:56:44;100373.44;;;5.72;80.51
62122;BME280;48108;47.532;19.084;2023-02-02T14:59:52;100379.37;;;5.65;80.89
62122;BME280;48108;47.532;19.084;2023-02-02T15:06:40;100386.37;;;5.66;81.48
62122;BME280;48108;47.532;19.084;2023-02-02T15:09:44;100396.53;;;5.63;81.88
62122;BME280;48108;47.532;19.084;2023-02-02T15:13:02;100391.19;;;5.63;80.75
62122;BME280;48108;47.532;19.084;2023-02-02T15:16:18;100385.00;;;5.62;82.42
62122;BME280;48108;47.532;19.084;2023-02-02T15:19:31;100398.78;;;5.58;81.39
62122;BME280;48108;47.532;19.084;2023-02-02T15:23:04;100407.22;;;5.63;82.16
62122;BME280;48108;47.532;19.084;2023-02-02T15:26:21;100400.19;;;5.52;81.59
62122;BME280;48108;47.532;19.084;2023-02-02T15:29:40;100405.28;;;5.45;82.01
62122;BME280;48108;47.532;19.084;2023-02-02T15:32:44;100411.03;;;5.51;81.98
62122;BME280;48108;47.532;19.084;2023-02-02T15:35:48;100407.13;;;5.45;81.77
62122;BME280;48108;47.532;19.084;2023-02-02T15:38:55;100413.19;;;5.28;82.18
62122;BME280;48108;47.532;19.084;2023-02-02T15:42:14;100424.41;;;5.31;82.70
62122;BME280;48108;47.532;19.084;2023-02-02T15:45:41;100430.47;;;5.33;83.01
62122;BME280;48108;47.532;19.084;2023-02-02T15:49:13;100437.34;;;5.36;82.93
62122;BME280;48108;47.532;19.084;2023-02-02T15:52:47;100436.78;;;5.42;82.33
62122;BME280;48108;47.532;19.084;2023-02-02T15:55:52;100442.84;;;5.25;82.75
62122;BME280;48108;47.532;19.084;2023-02-02T15:58:58;100441.84;;;5.16;84.24
62122;BME280;48108;47.532;19.084;2023-02-02T16:08:30;100459.28;;;5.00;85.39
62122;BME280;48108;47.532;19.084;2023-02-02T16:11:41;100458.13;;;4.84;87.85
62122;BME280;48108;47.532;19.084;2023-02-02T16:14:49;100456.72;;;4.80;88.24
62122;BME280;48108;47.532;19.084;2023-02-02T16:18:12;100463.16;;;4.67;88.65
62122;BME280;48108;47.532;19.084;2023-02-02T16:21:22;100468.09;;;4.72;88.79
62122;BME280;48108;47.532;19.084;2023-02-02T16:27:33;100468.47;;;4.67;91.36
62122;BME280;48108;47.532;19.084;2023-02-02T16:30:37;100485.91;;;4.71;89.58
62122;BME280;48108;47.532;19.084;2023-02-02T16:33:43;100488.16;;;4.76;90.07
62122;BME280;48108;47.532;19.084;2023-02-02T16:37:06;100483.09;;;4.73;89.31
62122;BME280;48108;47.532;19.084;2023-02-02T16:40:28;100499.25;;;4.71;89.51
62122;BME280;48108;47.532;19.084;2023-02-02T16:43:33;100506.66;;;4.58;90.14
62122;BME280;48108;47.532;19.084;2023-02-02T16:46:45;100511.53;;;4.53;90.98
62122;BME280;48108;47.532;19.084;2023-02-02T16:49:50;100507.28;;;4.41;92.27
62122;BME280;48108;47.532;19.084;2023-02-02T16:53:03;100512.78;;;4.39;93.34
62122;BME280;48108;47.532;19.084;2023-02-02T16:56:08;100519.78;;;4.50;92.00
62122;BME280;48108;47.532;19.084;2023-02-02T16:59:26;100522.47;;;4.50;92.29
